sensor_id;sensor_type;location;lat;lon;timestamp;P1;durP1;ratioP1;P2;durP2;ratioP2
75285;SDS011;63879;46.064;14.532;2022-12-10T07:00:07;16.40;;;9.25;;
75285;SDS011;63879;46.064;14.532;2022-12-10T07:02:33;18.67;;;10.43;;
75285;SDS011;63879;46.064;14.532;2022-12-10T07:04:59;17.88;;;10.00;;
75285;SDS011;63879;46.064;14.532;2022-12-10T07:07:25;21.70;;;12.45;;
75285;SDS011;63879;46.064;14.532;2022-12-10T07:09:50;18.60;;;11.17;;
75285;SDS011;63879;46.064;14.532;2022-12-10T07:12:16;19.60;;;10.27;;
75285;SDS011;63879;46.064;14.532;2022-12-10T07:14:41;17.92;;;10.30;;
75285;SDS011;63879;46.064;14.532;2022-12-10T07:17:06;16.57;;;9.30;;
75285;SDS011;63879;46.064;14.532;2022-12-10T07:19:32;20.67;;;10.73;;
75285;SDS011;63879;46.064;14.532;2022-12-10T07:21:57;17.70;;;9.80;;
75285;SDS011;63879;46.064;14.532;2022-12-10T07:24:23;15.55;;;8.73;;
75285;SDS011;63879;46.064;14.532;2022-12-10T07:26:49;15.70;;;8.73;;
75285;SDS011;63879;46.064;14.532;2022-12-10T07:29:16;15.93;;;9.27;;
75285;SDS011;63879;46.064;14.532;2022-12-10T07:31:44;19.58;;;10.23;;
75285;SDS011;63879;46.064;14.532;2022-12-10T07:34:10;19.48;;;10.38;;
75285;SDS011;63879;46.064;14.532;2022-12-10T07:36:36;17.65;;;12.38;;
75285;SDS011;63879;46.064;14.532;2022-12-10T07:39:04;21.40;;;12.27;;
75285;SDS011;63879;46.064;14.532;2022-12-10T07:41:34;22.17;;;12.35;;
75285;SDS011;63879;46.064;14.532;2022-12-10T07:44:00;17.92;;;11.00;;
75285;SDS011;63879;46.064;14.532;2022-12-10T07:46:27;18.17;;;10.20;;
75285;SDS011;63879;46.064;14.532;2022-12-10T07:48:55;19.73;;;11.48;;
75285;SDS011;63879;46.064;14.532;2022-12-10T07:51:21;19.27;;;10.88;;
75285;SDS011;63879;46.064;14.532;2022-12-10T07:53:47;15.82;;;9.65;;
75285;SDS011;63879;46.064;14.532;2022-12-10T07:56:15;20.33;;;11.02;;
75285;SDS011;63879;46.064;14.532;2022-12-10T07:58:41;17.48;;;10.52;;
75285;SDS011;63879;46.064;14.532;2022-12-10T08:01:10;26.13;;;16.00;;
75285;SDS011;63879;46.064;14.532;2022-12-10T08:03:38;17.33;;;9.88;;
75285;SDS011;63879;46.064;14.532;2022-12-10T08:06:04;17.20;;;10.50;;
75285;SDS011;63879;46.064;14.532;2022-12-10T08:08:32;15.95;;;9.70;;
75285;SDS011;63879;46.064;14.532;2022-12-10T08:10:59;17.92;;;10.30;;
75285;SDS011;63879;46.064;14.532;2022-12-10T08:13:25;17.38;;;9.75;;
75285;SDS011;63879;46.064;14.532;2022-12-10T08:15:50;17.23;;;9.40;;
75285;SDS011;63879;46.064;14.532;2022-12-10T08:18:16;16.17;;;9.83;;
75285;SDS011;63879;46.064;14.532;2022-12-10T08:20:41;16.20;;;9.77;;
75285;SDS011;63879;46.064;14.532;2022-12-10T08:23:07;14.27;;;7.03;;
75285;SDS011;63879;46.064;14.532;2022-12-10T08:25:32;11.20;;;7.80;;
75285;SDS011;63879;46.064;14.532;2022-12-10T08:27:57;11.53;;;6.80;;
75285;SDS011;63879;46.064;14.532;2022-12-10T08:30:24;11.70;;;7.85;;
75285;SDS011;63879;46.064;14.532;2022-12-10T08:32:50;10.45;;;6.18;;
75285;SDS011;63879;46.064;14.532;2022-12-10T08:35:15;11.95;;;6.60;;
75285;SDS011;63879;46.064;14.532;2022-12-10T08:37:41;11.60;;;6.53;;
75285;SDS011;63879;46.064;14.532;2022-12-10T08:40:07;10.45;;;7.03;;
75285;SDS011;63879;46.064;14.532;2022-12-10T08:42:32;10.88;;;6.47;;
75285;SDS011;63879;46.064;14.532;2022-12-10T08:44:58;13.00;;;8.15;;
75285;SDS011;63879;46.064;14.532;2022-12-10T08:47:23;16.67;;;8.02;;
75285;SDS011;63879;46.064;14.532;2022-12-10T08:49:49;13.10;;;7.28;;
75285;SDS011;63879;46.064;14.532;2022-12-10T08:52:14;14.30;;;7.40;;
75285;SDS011;63879;46.064;14.532;2022-12-10T08:54:40;12.10;;;7.10;;
75285;SDS011;63879;46.064;14.532;2022-12-10T08:57:05;12.53;;;6.70;;
75285;SDS011;63879;46.064;14.532;2022-12-10T08:59:30;12.67;;;6.97;;
75285;SDS011;63879;46.064;14.532;2022-12-10T09:01:56;11.87;;;7.20;;
75285;SDS011;63879;46.064;14.532;2022-12-10T09:04:21;9.83;;;5.90;;
75285;SDS011;63879;46.064;14.532;2022-12-10T09:06:46;8.77;;;5.67;;
75285;SDS011;63879;46.064;14.532;2022-12-10T09:09:12;8.50;;;5.25;;
75285;SDS011;63879;46.064;14.532;2022-12-10T09:11:37;10.13;;;5.63;;
75285;SDS011;63879;46.064;14.532;2022-12-10T09:14:03;10.03;;;4.80;;
75285;SDS011;63879;46.064;14.532;2022-12-10T09:16:29;7.23;;;4.00;;
75285;SDS011;63879;46.064;14.532;2022-12-10T09:18:59;7.85;;;4.30;;
75285;SDS011;63879;46.064;14.532;2022-12-10T09:21:25;6.63;;;4.07;;
75285;SDS011;63879;46.064;14.532;2022-12-10T09:23:51;7.82;;;4.38;;
75285;SDS011;63879;46.064;14.532;2022-12-10T09:26:16;4.88;;;2.85;;
75285;SDS011;63879;46.064;14.532;2022-12-10T09:28:42;5.60;;;3.35;;
75285;SDS011;63879;46.064;14.532;2022-12-10T09:31:09;4.88;;;2.53;;
75285;SDS011;63879;46.064;14.532;2022-12-10T09:33:40;3.63;;;2.63;;
75285;SDS011;63879;46.064;14.532;2022-12-10T09:36:06;3.92;;;2.10;;
75285;SDS011;63879;46.064;14.532;2022-12-10T09:38:36;2.55;;;1.17;;
75285;SDS011;63879;46.064;14.532;2022-12-10T09:41:05;3.40;;;1.73;;
75285;SDS011;63879;46.064;14.532;2022-12-10T09:44:12;2.35;;;1.48;;
75285;SDS011;63879;46.064;14.532;2022-12-10T09:46:43;2.97;;;1.95;;
75285;SDS011;63879;46.064;14.532;2022-12-10T09:51:55;3.58;;;2.00;;
75285;SDS011;63879;46.064;14.532;2022-12-10T09:54:25;3.25;;;1.92;;
75285;SDS011;63879;46.064;14.532;2022-12-10T09:56:52;2.72;;;1.77;;
75285;SDS011;63879;46.064;14.532;2022-12-10T09:59:19;2.70;;;2.10;;
75285;SDS011;63879;46.064;14.532;2022-12-10T10:01:48;2.33;;;1.10;;
75285;SDS011;63879;46.064;14.532;2022-12-10T10:04:26;2.10;;;1.40;;
75285;SDS011;63879;46.064;14.532;2022-12-10T10:06:52;3.58;;;1.45;;
75285;SDS011;63879;46.064;14.532;2022-12-10T10:09:17;4.18;;;1.83;;
75285;SDS011;63879;46.064;14.532;2022-12-10T10:11:44;3.85;;;1.85;;
75285;SDS011;63879;46.064;14.532;2022-12-10T10:14:22;2.90;;;1.52;;
75285;SDS011;63879;46.064;14.532;2022-12-10T10:19:30;2.88;;;1.52;;
75285;SDS011;63879;46.064;14.532;2022-12-10T10:21:58;2.60;;;1.15;;
75285;SDS011;63879;46.064;14.532;2022-12-10T10:24:25;2.25;;;1.15;;
75285;SDS011;63879;46.064;14.532;2022-12-10T10:27:11;2.78;;;1.20;;
75285;SDS011;63879;46.064;14.532;2022-12-10T10:29:37;1.95;;;1.20;;
75285;SDS011;63879;46.064;14.532;2022-12-10T10:32:10;2.75;;;1.40;;
75285;SDS011;63879;46.064;14.532;2022-12-10T10:34:42;2.88;;;1.58;;
75285;SDS011;63879;46.064;14.532;2022-12-10T10:37:23;2.75;;;1.48;;
75285;SDS011;63879;46.064;14.532;2022-12-10T10:39:53;2.35;;;1.33;;
75285;SDS011;63879;46.064;14.532;2022-12-10T10:45:06;1.88;;;1.20;;
75285;SDS011;63879;46.064;14.532;2022-12-10T10:50:39;3.33;;;1.95;;
75285;SDS011;63879;46.064;14.532;2022-12-10T10:53:20;2.53;;;1.45;;
75285;SDS011;63879;46.064;14.532;2022-12-10T10:56:15;2.95;;;1.45;;
75285;SDS011;63879;46.064;14.532;2022-12-10T11:04:10;4.65;;;1.63;;
75285;SDS011;63879;46.064;14.532;2022-12-10T11:06:35;3.80;;;1.92;;
75285;SDS011;63879;46.064;14.532;2022-12-10T11:09:01;3.45;;;1.55;;
75285;SDS011;63879;46.064;14.532;2022-12-10T11:17:20;2.63;;;1.38;;
75285;SDS011;63879;46.064;14.532;2022-12-10T11:19:58;3.50;;;1.50;;
75285;SDS011;63879;46.064;14.532;2022-12-10T11:22:33;3.10;;;1.52;;
75285;SDS011;63879;46.064;14.532;2022-12-10T11:24:59;3.10;;;1.90;;
75285;SDS011;63879;46.064;14.532;2022-12-10T11:30:41;2.42;;;1.35;;
75285;SDS011;63879;46.064;14.532;2022-12-10T11:40:49;5.10;;;2.20;;
75285;SDS011;63879;46.064;14.532;2022-12-10T11:59:42;3.22;;;2.10;;
75285;SDS011;63879;46.064;14.532;2022-12-10T12:05:07;3.40;;;1.85;;
75285;SDS011;63879;46.064;14.532;2022-12-10T12:10:44;4.80;;;2.08;;
75285;SDS011;63879;46.064;14.532;2022-12-10T12:13:24;3.35;;;1.50;;
75285;SDS011;63879;46.064;14.532;2022-12-10T12:15:59;2.88;;;1.25;;
75285;SDS011;63879;46.064;14.532;2022-12-10T12:21:03;3.53;;;2.05;;
75285;SDS011;63879;46.064;14.532;2022-12-10T12:26:09;2.63;;;1.60;;
75285;SDS011;63879;46.064;14.532;2022-12-10T12:28:40;2.90;;;1.83;;
75285;SDS011;63879;46.064;14.532;2022-12-10T12:31:11;2.25;;;1.42;;
75285;SDS011;63879;46.064;14.532;2022-12-10T12:36:21;3.28;;;1.70;;
75285;SDS011;63879;46.064;14.532;2022-12-10T12:41:41;2.08;;;1.25;;
75285;SDS011;63879;46.064;14.532;2022-12-10T12:44:15;2.80;;;1.33;;
75285;SDS011;63879;46.064;14.532;2022-12-10T12:46:47;2.70;;;1.63;;
75285;SDS011;63879;46.064;14.532;2022-12-10T12:49:16;3.28;;;2.17;;
75285;SDS011;63879;46.064;14.532;2022-12-10T12:54:25;4.50;;;2.20;;
75285;SDS011;63879;46.064;14.532;2022-12-10T12:56:58;4.97;;;2.50;;
75285;SDS011;63879;46.064;14.532;2022-12-10T13:02:08;3.17;;;2.30;;
75285;SDS011;63879;46.064;14.532;2022-12-10T13:04:42;4.88;;;2.92;;
75285;SDS011;63879;46.064;14.532;2022-12-10T13:10:23;6.00;;;2.83;;
75285;SDS011;63879;46.064;14.532;2022-12-10T13:12:32;4.38;;;2.92;;
75285;SDS011;63879;46.064;14.532;2022-12-10T13:18:21;5.95;;;3.55;;
75285;SDS011;63879;46.064;14.532;2022-12-10T13:20:44;4.95;;;2.97;;
75285;SDS011;63879;46.064;14.532;2022-12-10T13:36:25;2.78;;;1.92;;
75285;SDS011;63879;46.064;14.532;2022-12-10T13:39:11;3.25;;;1.85;;
75285;SDS011;63879;46.064;14.532;2022-12-10T13:47:24;3.60;;;1.88;;
75285;SDS011;63879;46.064;14.532;2022-12-10T13:50:05;4.32;;;2.42;;
75285;SDS011;63879;46.064;14.532;2022-12-10T13:52:38;3.55;;;1.60;;
75285;SDS011;63879;46.064;14.532;2022-12-10T13:55:34;3.50;;;1.80;;
75285;SDS011;63879;46.064;14.532;2022-12-10T13:58:09;4.00;;;1.60;;
75285;SDS011;63879;46.064;14.532;2022-12-10T14:00:58;4.22;;;2.22;;
75285;SDS011;63879;46.064;14.532;2022-12-10T14:03:55;3.08;;;1.92;;
75285;SDS011;63879;46.064;14.532;2022-12-10T14:06:31;3.22;;;1.65;;
75285;SDS011;63879;46.064;14.532;2022-12-10T14:09:00;3.13;;;1.60;;
75285;SDS011;63879;46.064;14.532;2022-12-10T14:11:36;3.70;;;1.60;;
75285;SDS011;63879;46.064;14.532;2022-12-10T14:14:03;3.17;;;2.72;;
75285;SDS011;63879;46.064;14.532;2022-12-10T14:16:32;4.25;;;2.20;;
75285;SDS011;63879;46.064;14.532;2022-12-10T14:19:08;3.63;;;2.55;;
75285;SDS011;63879;46.064;14.532;2022-12-10T14:21:38;3.40;;;1.90;;
75285;SDS011;63879;46.064;14.532;2022-12-10T14:24:06;5.70;;;2.13;;
75285;SDS011;63879;46.064;14.532;2022-12-10T14:26:56;5.18;;;2.47;;
75285;SDS011;63879;46.064;14.532;2022-12-10T14:29:23;3.03;;;2.08;;
75285;SDS011;63879;46.064;14.532;2022-12-10T14:31:49;4.75;;;2.38;;
75285;SDS011;63879;46.064;14.532;2022-12-10T14:34:16;3.60;;;1.70;;
75285;SDS011;63879;46.064;14.532;2022-12-10T14:36:44;2.88;;;1.85;;
75285;SDS011;63879;46.064;14.532;2022-12-10T14:39:13;2.53;;;1.70;;
75285;SDS011;63879;46.064;14.532;2022-12-10T14:41:39;3.08;;;1.63;;
75285;SDS011;63879;46.064;14.532;2022-12-10T14:44:05;3.47;;;1.92;;
75285;SDS011;63879;46.064;14.532;2022-12-10T14:46:31;2.85;;;1.70;;
75285;SDS011;63879;46.064;14.532;2022-12-10T14:48:59;3.80;;;1.92;;
75285;SDS011;63879;46.064;14.532;2022-12-10T14:51:26;5.43;;;2.42;;
75285;SDS011;63879;46.064;14.532;2022-12-10T14:53:56;4.75;;;2.60;;
75285;SDS011;63879;46.064;14.532;2022-12-10T14:56:32;3.08;;;1.90;;
75285;SDS011;63879;46.064;14.532;2022-12-10T14:59:12;5.32;;;2.35;;
75285;SDS011;63879;46.064;14.532;2022-12-10T15:01:42;3.42;;;1.60;;
75285;SDS011;63879;46.064;14.532;2022-12-10T15:04:14;2.58;;;1.92;;
75285;SDS011;63879;46.064;14.532;2022-12-10T15:06:42;2.58;;;1.63;;
75285;SDS011;63879;46.064;14.532;2022-12-10T15:09:13;4.65;;;1.90;;
75285;SDS011;63879;46.064;14.532;2022-12-10T15:11:40;3.03;;;1.63;;
75285;SDS011;63879;46.064;14.532;2022-12-10T15:14:06;2.80;;;1.70;;
75285;SDS011;63879;46.064;14.532;2022-12-10T15:16:40;2.13;;;1.27;;
75285;SDS011;63879;46.064;14.532;2022-12-10T15:19:52;2.08;;;1.17;;
75285;SDS011;63879;46.064;14.532;2022-12-10T15:21:57;1.90;;;1.38;;
75285;SDS011;63879;46.064;14.532;2022-12-10T15:24:27;2.88;;;1.17;;
75285;SDS011;63879;46.064;14.532;2022-12-10T15:27:01;1.65;;;1.05;;
75285;SDS011;63879;46.064;14.532;2022-12-10T15:31:59;1.92;;;1.10;;
75285;SDS011;63879;46.064;14.532;2022-12-10T15:34:58;3.70;;;1.77;;
75285;SDS011;63879;46.064;14.532;2022-12-10T15:37:26;2.28;;;1.35;;
75285;SDS011;63879;46.064;14.532;2022-12-10T15:40:04;2.08;;;1.45;;
75285;SDS011;63879;46.064;14.532;2022-12-10T15:45:03;2.13;;;1.27;;
75285;SDS011;63879;46.064;14.532;2022-12-10T15:47:35;2.38;;;1.23;;
75285;SDS011;63879;46.064;14.532;2022-12-10T15:50:03;2.22;;;1.08;;
75285;SDS011;63879;46.064;14.532;2022-12-10T15:52:29;2.03;;;1.25;;
75285;SDS011;63879;46.064;14.532;2022-12-10T15:54:56;1.80;;;1.00;;
75285;SDS011;63879;46.064;14.532;2022-12-10T15:59:56;1.95;;;1.30;;
75285;SDS011;63879;46.064;14.532;2022-12-10T16:02:36;2.35;;;1.23;;
75285;SDS011;63879;46.064;14.532;2022-12-10T16:07:37;1.80;;;1.00;;
75285;SDS011;63879;46.064;14.532;2022-12-10T16:10:03;1.92;;;1.08;;
75285;SDS011;63879;46.064;14.532;2022-12-10T16:12:30;2.17;;;0.82;;
75285;SDS011;63879;46.064;14.532;2022-12-10T16:14:56;1.98;;;1.25;;
75285;SDS011;63879;46.064;14.532;2022-12-10T16:17:25;2.88;;;1.35;;
75285;SDS011;63879;46.064;14.532;2022-12-10T16:19:52;3.03;;;1.33;;
75285;SDS011;63879;46.064;14.532;2022-12-10T16:22:18;2.97;;;1.17;;
75285;SDS011;63879;46.064;14.532;2022-12-10T16:24:44;2.17;;;1.08;;
75285;SDS011;63879;46.064;14.532;2022-12-10T16:27:11;2.42;;;1.10;;
75285;SDS011;63879;46.064;14.532;2022-12-10T16:29:38;1.83;;;0.90;;
75285;SDS011;63879;46.064;14.532;2022-12-10T16:32:03;1.83;;;1.13;;
75285;SDS011;63879;46.064;14.532;2022-12-10T16:34:29;3.30;;;1.20;;
75285;SDS011;63879;46.064;14.532;2022-12-10T16:36:54;2.47;;;1.60;;
75285;SDS011;63879;46.064;14.532;2022-12-10T16:39:20;2.30;;;1.38;;
75285;SDS011;63879;46.064;14.532;2022-12-10T16:41:50;3.60;;;1.63;;
75285;SDS011;63879;46.064;14.532;2022-12-10T16:44:17;3.03;;;1.50;;
75285;SDS011;63879;46.064;14.532;2022-12-10T16:46:43;3.03;;;1.60;;
75285;SDS011;63879;46.064;14.532;2022-12-10T16:49:08;3.10;;;1.50;;
75285;SDS011;63879;46.064;14.532;2022-12-10T16:51:34;2.75;;;1.20;;
75285;SDS011;63879;46.064;14.532;2022-12-10T16:54:00;2.47;;;1.38;;
75285;SDS011;63879;46.064;14.532;2022-12-10T16:56:25;3.30;;;1.40;;
75285;SDS011;63879;46.064;14.532;2022-12-10T16:58:51;2.42;;;1.35;;
75285;SDS011;63879;46.064;14.532;2022-12-10T17:01:23;2.03;;;1.15;;
75285;SDS011;63879;46.064;14.532;2022-12-10T17:03:53;3.20;;;1.20;;
75285;SDS011;63879;46.064;14.532;2022-12-10T17:06:19;2.05;;;1.13;;
75285;SDS011;63879;46.064;14.532;2022-12-10T17:08:45;2.55;;;1.00;;
75285;SDS011;63879;46.064;14.532;2022-12-10T17:11:21;1.50;;;1.10;;
75285;SDS011;63879;46.064;14.532;2022-12-10T17:17:04;4.05;;;1.40;;
75285;SDS011;63879;46.064;14.532;2022-12-10T17:19:32;4.05;;;1.30;;
75285;SDS011;63879;46.064;14.532;2022-12-10T17:21:59;2.53;;;1.33;;
75285;SDS011;63879;46.064;14.532;2022-12-10T17:24:24;2.97;;;1.40;;
75285;SDS011;63879;46.064;14.532;2022-12-10T17:26:50;3.33;;;1.40;;
75285;SDS011;63879;46.064;14.532;2022-12-10T17:29:18;5.70;;;1.90;;
75285;SDS011;63879;46.064;14.532;2022-12-10T17:31:48;2.50;;;1.30;;
75285;SDS011;63879;46.064;14.532;2022-12-10T17:34:14;1.75;;;1.00;;
75285;SDS011;63879;46.064;14.532;2022-12-10T17:36:40;2.28;;;1.40;;
75285;SDS011;63879;46.064;14.532;2022-12-10T17:39:06;2.92;;;1.30;;
75285;SDS011;63879;46.064;14.532;2022-12-10T17:41:34;2.92;;;1.20;;
75285;SDS011;63879;46.064;14.532;2022-12-10T17:44:01;2.85;;;1.20;;
75285;SDS011;63879;46.064;14.532;2022-12-10T17:46:27;2.67;;;1.25;;
75285;SDS011;63879;46.064;14.532;2022-12-10T17:48:53;2.25;;;1.20;;
75285;SDS011;63879;46.064;14.532;2022-12-10T17:51:18;2.37;;;1.10;;
75285;SDS011;63879;46.064;14.532;2022-12-10T17:53:44;2.08;;;0.98;;
75285;SDS011;63879;46.064;14.532;2022-12-10T17:56:13;1.58;;;0.65;;
75285;SDS011;63879;46.064;14.532;2022-12-10T17:58:44;1.67;;;0.80;;
75285;SDS011;63879;46.064;14.532;2022-12-10T18:01:13;3.83;;;0.90;;
75285;SDS011;63879;46.064;14.532;2022-12-10T18:03:39;1.73;;;0.70;;
75285;SDS011;63879;46.064;14.532;2022-12-10T18:06:09;2.80;;;1.13;;
75285;SDS011;63879;46.064;14.532;2022-12-10T18:08:39;2.72;;;0.70;;
75285;SDS011;63879;46.064;14.532;2022-12-10T18:11:05;2.22;;;0.80;;
75285;SDS011;63879;46.064;14.532;2022-12-10T18:13:30;1.20;;;0.70;;
75285;SDS011;63879;46.064;14.532;2022-12-10T18:15:56;2.75;;;0.80;;
75285;SDS011;63879;46.064;14.532;2022-12-10T18:18:22;1.23;;;0.68;;
75285;SDS011;63879;46.064;14.532;2022-12-10T18:20:47;1.70;;;0.60;;
75285;SDS011;63879;46.064;14.532;2022-12-10T18:23:13;1.67;;;0.90;;
75285;SDS011;63879;46.064;14.532;2022-12-10T18:25:39;0.93;;;0.60;;
75285;SDS011;63879;46.064;14.532;2022-12-10T18:28:53;1.42;;;0.82;;
75285;SDS011;63879;46.064;14.532;2022-12-10T18:30:53;3.17;;;1.67;;
75285;SDS011;63879;46.064;14.532;2022-12-10T18:33:21;3.95;;;2.38;;
75285;SDS011;63879;46.064;14.532;2022-12-10T18:35:47;3.47;;;1.95;;
75285;SDS011;63879;46.064;14.532;2022-12-10T18:38:14;6.22;;;3.05;;
75285;SDS011;63879;46.064;14.532;2022-12-10T18:40:40;7.78;;;3.70;;
75285;SDS011;63879;46.064;14.532;2022-12-10T18:43:06;7.43;;;3.70;;
75285;SDS011;63879;46.064;14.532;2022-12-10T18:45:31;7.32;;;3.92;;
75285;SDS011;63879;46.064;14.532;2022-12-10T18:47:57;4.10;;;1.75;;
75285;SDS011;63879;46.064;14.532;2022-12-10T18:50:24;31.30;;;11.85;;
75285;SDS011;63879;46.064;14.532;2022-12-10T18:52:51;16.90;;;7.47;;
75285;SDS011;63879;46.064;14.532;2022-12-10T18:55:17;4.93;;;2.35;;
75285;SDS011;63879;46.064;14.532;2022-12-10T18:57:44;4.93;;;2.17;;
75285;SDS011;63879;46.064;14.532;2022-12-10T19:00:10;4.93;;;2.83;;
75285;SDS011;63879;46.064;14.532;2022-12-10T19:02:41;6.68;;;2.80;;
75285;SDS011;63879;46.064;14.532;2022-12-10T19:05:08;5.32;;;2.22;;
75285;SDS011;63879;46.064;14.532;2022-12-10T19:07:33;4.75;;;2.10;;
75285;SDS011;63879;46.064;14.532;2022-12-10T19:09:59;3.95;;;2.20;;
75285;SDS011;63879;46.064;14.532;2022-12-10T19:12:24;4.28;;;2.03;;
75285;SDS011;63879;46.064;14.532;2022-12-10T19:14:50;7.30;;;2.63;;
75285;SDS011;63879;46.064;14.532;2022-12-10T19:17:16;5.15;;;2.70;;
75285;SDS011;63879;46.064;14.532;2022-12-10T19:19:41;4.68;;;2.38;;
75285;SDS011;63879;46.064;14.532;2022-12-10T19:22:07;5.32;;;2.53;;
75285;SDS011;63879;46.064;14.532;2022-12-10T19:24:32;4.90;;;2.50;;
75285;SDS011;63879;46.064;14.532;2022-12-10T19:26:57;5.07;;;2.47;;
75285;SDS011;63879;46.064;14.532;2022-12-10T19:29:23;5.82;;;3.08;;
75285;SDS011;63879;46.064;14.532;2022-12-10T19:31:49;5.85;;;3.13;;
75285;SDS011;63879;46.064;14.532;2022-12-10T19:34:18;3.97;;;2.75;;
75285;SDS011;63879;46.064;14.532;2022-12-10T19:36:44;5.57;;;2.60;;
75285;SDS011;63879;46.064;14.532;2022-12-10T19:39:14;5.55;;;3.03;;
75285;SDS011;63879;46.064;14.532;2022-12-10T19:41:41;4.35;;;2.58;;
75285;SDS011;63879;46.064;14.532;2022-12-10T19:44:06;5.00;;;3.05;;
75285;SDS011;63879;46.064;14.532;2022-12-10T19:46:32;4.45;;;2.80;;
75285;SDS011;63879;46.064;14.532;2022-12-10T19:48:57;6.90;;;3.33;;
75285;SDS011;63879;46.064;14.532;2022-12-10T19:51:23;5.40;;;3.20;;
75285;SDS011;63879;46.064;14.532;2022-12-10T19:53:49;6.18;;;3.80;;
75285;SDS011;63879;46.064;14.532;2022-12-10T19:58:45;5.85;;;3.53;;
75285;SDS011;63879;46.064;14.532;2022-12-10T20:01:14;8.52;;;4.93;;
75285;SDS011;63879;46.064;14.532;2022-12-10T20:03:40;6.75;;;3.90;;
75285;SDS011;63879;46.064;14.532;2022-12-10T20:06:12;6.78;;;4.18;;
75285;SDS011;63879;46.064;14.532;2022-12-10T20:08:48;6.40;;;3.88;;
75285;SDS011;63879;46.064;14.532;2022-12-10T20:11:17;7.95;;;4.07;;
75285;SDS011;63879;46.064;14.532;2022-12-10T20:13:42;8.10;;;4.78;;
75285;SDS011;63879;46.064;14.532;2022-12-10T20:16:18;10.60;;;6.38;;
75285;SDS011;63879;46.064;14.532;2022-12-10T20:18:46;7.85;;;4.90;;
75285;SDS011;63879;46.064;14.532;2022-12-10T20:21:12;9.70;;;4.70;;
75285;SDS011;63879;46.064;14.532;2022-12-10T20:23:38;7.15;;;4.03;;
75285;SDS011;63879;46.064;14.532;2022-12-10T20:26:05;5.47;;;3.40;;
75285;SDS011;63879;46.064;14.532;2022-12-10T20:28:41;5.30;;;3.75;;
75285;SDS011;63879;46.064;14.532;2022-12-10T20:31:07;6.70;;;4.07;;
75285;SDS011;63879;46.064;14.532;2022-12-10T20:33:32;8.32;;;4.22;;
75285;SDS011;63879;46.064;14.532;2022-12-10T20:35:58;8.65;;;4.55;;
75285;SDS011;63879;46.064;14.532;2022-12-10T20:38:23;6.15;;;3.83;;
75285;SDS011;63879;46.064;14.532;2022-12-10T20:40:49;7.22;;;4.88;;
75285;SDS011;63879;46.064;14.532;2022-12-10T20:43:15;7.50;;;3.90;;
75285;SDS011;63879;46.064;14.532;2022-12-10T20:45:40;7.88;;;4.10;;
75285;SDS011;63879;46.064;14.532;2022-12-10T20:48:08;7.05;;;5.20;;
75285;SDS011;63879;46.064;14.532;2022-12-10T20:50:34;7.13;;;4.43;;
75285;SDS011;63879;46.064;14.532;2022-12-10T20:52:59;9.93;;;4.20;;
75285;SDS011;63879;46.064;14.532;2022-12-10T20:55:24;7.30;;;4.00;;
75285;SDS011;63879;46.064;14.532;2022-12-10T20:57:50;6.57;;;4.20;;
75285;SDS011;63879;46.064;14.532;2022-12-10T21:00:16;6.97;;;4.18;;
75285;SDS011;63879;46.064;14.532;2022-12-10T21:02:43;8.15;;;3.85;;
75285;SDS011;63879;46.064;14.532;2022-12-10T21:05:09;6.72;;;4.18;;
75285;SDS011;63879;46.064;14.532;2022-12-10T21:07:34;7.38;;;4.20;;
75285;SDS011;63879;46.064;14.532;2022-12-10T21:10:02;6.57;;;3.47;;
75285;SDS011;63879;46.064;14.532;2022-12-10T21:12:28;6.30;;;3.90;;
75285;SDS011;63879;46.064;14.532;2022-12-10T21:14:53;6.38;;;3.65;;
75285;SDS011;63879;46.064;14.532;2022-12-10T21:17:19;5.57;;;3.08;;
75285;SDS011;63879;46.064;14.532;2022-12-10T21:19:44;7.00;;;3.75;;
75285;SDS011;63879;46.064;14.532;2022-12-10T21:22:11;6.85;;;3.55;;
75285;SDS011;63879;46.064;14.532;2022-12-10T21:24:37;6.45;;;3.67;;
75285;SDS011;63879;46.064;14.532;2022-12-10T21:27:03;5.85;;;3.58;;
75285;SDS011;63879;46.064;14.532;2022-12-10T21:29:28;9.05;;;4.78;;
75285;SDS011;63879;46.064;14.532;2022-12-10T21:31:54;10.03;;;5.23;;
75285;SDS011;63879;46.064;14.532;2022-12-10T21:34:19;12.48;;;6.50;;
75285;SDS011;63879;46.064;14.532;2022-12-10T21:36:45;7.95;;;5.15;;
75285;SDS011;63879;46.064;14.532;2022-12-10T21:39:10;8.85;;;4.50;;
75285;SDS011;63879;46.064;14.532;2022-12-10T21:41:36;10.23;;;5.70;;
75285;SDS011;63879;46.064;14.532;2022-12-10T21:44:20;14.52;;;8.35;;
75285;SDS011;63879;46.064;14.532;2022-12-10T21:46:46;9.95;;;6.63;;
75285;SDS011;63879;46.064;14.532;2022-12-10T21:49:11;10.57;;;5.93;;
75285;SDS011;63879;46.064;14.532;2022-12-10T21:51:36;8.40;;;5.13;;
75285;SDS011;63879;46.064;14.532;2022-12-10T21:54:02;8.20;;;4.40;;
75285;SDS011;63879;46.064;14.532;2022-12-10T21:56:28;8.35;;;4.43;;
75285;SDS011;63879;46.064;14.532;2022-12-10T21:58:53;9.48;;;4.78;;
